createdAt,value
2022-09-09T00:00:17.953Z,98034.00
2022-09-09T00:02:57.198Z,98035.94
2022-09-09T00:05:33.756Z,98042.50
2022-09-09T00:08:04.931Z,98039.22
2022-09-09T00:10:34.895Z,98041.50
2022-09-09T00:13:25.969Z,98045.41
2022-09-09T00:15:58.668Z,98039.72
2022-09-09T00:18:55.017Z,98032.06
2022-09-09T00:21:31.450Z,98018.50
2022-09-09T00:24:00.040Z,98028.78
2022-09-09T00:26:36.706Z,98028.13
2022-09-09T00:29:15.368Z,98023.75
2022-09-09T00:31:42.093Z,98016.06
2022-09-09T00:34:25.462Z,98004.31
2022-09-09T00:36:53.833Z,98011.81
2022-09-09T00:39:33.742Z,97998.75
2022-09-09T00:42:12.224Z,97997.63
2022-09-09T00:44:40.555Z,97985.03
2022-09-09T00:47:31.238Z,97989.63
2022-09-09T00:50:25.883Z,98008.72
2022-09-09T00:53:20.611Z,98000.88
2022-09-09T00:56:02.833Z,97994.84
2022-09-09T00:58:29.550Z,97979.84
2022-09-09T01:01:10.117Z,97978.69
2022-09-09T01:03:50.310Z,97979.69
2022-09-09T01:06:28.158Z,97970.69
2022-09-09T01:09:04.283Z,97977.53
2022-09-09T01:11:54.191Z,97978.22
2022-09-09T01:14:36.313Z,97983.09
2022-09-09T01:17:24.480Z,97991.09
2022-09-09T01:20:11.460Z,97972.34
2022-09-09T01:23:11.267Z,97982.47
2022-09-09T01:25:44.392Z,97975.59
2022-09-09T01:28:23.925Z,97983.25
2022-09-09T01:30:52.689Z,97977.06
2022-09-09T01:33:22.529Z,97979.69
2022-09-09T01:36:01.690Z,97995.00
2022-09-09T01:38:33.853Z,97999.44
2022-09-09T01:41:00.529Z,98008.56
2022-09-09T01:43:38.280Z,97988.66
2022-09-09T01:46:05.391Z,97984.56
2022-09-09T01:48:35.118Z,98000.06
2022-09-09T01:51:04.990Z,98010.84
2022-09-09T01:53:31.818Z,98012.31
2022-09-09T01:56:04.606Z,97998.59
2022-09-09T01:58:57.479Z,97977.72
2022-09-09T02:01:27.078Z,97978.84
2022-09-09T02:03:58.078Z,97974.28
2022-09-09T02:06:41.011Z,97984.06
2022-09-09T02:09:25.345Z,97991.91
2022-09-09T02:12:18.357Z,97992.56
2022-09-09T02:14:57.448Z,97985.69
2022-09-09T02:17:32.173Z,97975.44
2022-09-09T02:20:13.945Z,97958.63
2022-09-09T02:22:50.559Z,97956.69
2022-09-09T02:25:22.404Z,97976.25
2022-09-09T02:27:52.465Z,97998.91
2022-09-09T02:30:21.290Z,98005.09
2022-09-09T02:32:59.570Z,98004.44
2022-09-09T02:36:04.386Z,97965.97
2022-09-09T02:38:37.361Z,97971.19
2022-09-09T02:41:09.613Z,97975.44
2022-09-09T02:43:36.811Z,97984.41
2022-09-09T02:46:37.595Z,97994.66
2022-09-09T02:49:11.059Z,98001.84
2022-09-09T02:52:02.154Z,98011.72
2022-09-09T02:54:33.558Z,98000.00
2022-09-09T02:57:23.025Z,97983.69
2022-09-09T02:59:51.178Z,97978.19
2022-09-09T03:02:17.781Z,98002.97
2022-09-09T03:04:51.906Z,98013.69
2022-09-09T03:07:22.487Z,98012.03
2022-09-09T03:09:51.028Z,98005.19
2022-09-09T03:12:17.734Z,97995.22
2022-09-09T03:14:46.350Z,97985.09
2022-09-09T03:17:13.441Z,97987.69
2022-09-09T03:19:46.805Z,97996.31
2022-09-09T03:22:14.275Z,97991.28
2022-09-09T03:24:42.715Z,97998.78
2022-09-09T03:27:09.627Z,97995.03
2022-09-09T03:29:38.176Z,98004.94
2022-09-09T03:32:11.078Z,98003.47
2022-09-09T03:34:41.231Z,98017.94
2022-09-09T03:37:11.492Z,98019.25
2022-09-09T03:39:38.130Z,98011.41
2022-09-09T03:42:04.952Z,98027.19
2022-09-09T03:44:32.350Z,98030.13
2022-09-09T03:47:01.195Z,98040.22
2022-09-09T03:49:29.525Z,98032.41
2022-09-09T03:51:58.237Z,98039.94
2022-09-09T03:54:26.326Z,98026.25
2022-09-09T03:56:52.843Z,98021.19
2022-09-09T03:59:21.610Z,98016.94
2022-09-09T04:01:48.602Z,98017.56
2022-09-09T04:04:15.344Z,98010.13
2022-09-09T04:06:42.113Z,97999.53
2022-09-09T04:09:08.716Z,97995.28
2022-09-09T04:11:35.438Z,97996.47
2022-09-09T04:14:02.095Z,97995.78
2022-09-09T04:16:30.435Z,98012.38
2022-09-09T04:18:57.223Z,98016.38
2022-09-09T04:21:24.214Z,98019.47
2022-09-09T04:23:50.878Z,98026.16
2022-09-09T04:26:18.222Z,98033.53
2022-09-09T04:28:45.752Z,98023.25
2022-09-09T04:31:21.116Z,98024.28
2022-09-09T04:33:49.378Z,98019.13
2022-09-09T04:36:19.219Z,98019.81
2022-09-09T04:38:47.125Z,98020.59
2022-09-09T04:41:14.752Z,98014.44
2022-09-09T04:43:44.143Z,98008.53
2022-09-09T04:46:11.255Z,98013.28
2022-09-09T04:48:38.240Z,98016.03
2022-09-09T04:51:10.385Z,98004.78
2022-09-09T04:53:37.428Z,98019.13
2022-09-09T04:56:13.922Z,98011.09
2022-09-09T04:58:49.023Z,98012.94
2022-09-09T05:01:19.205Z,98017.63
2022-09-09T05:03:47.553Z,98012.59
2022-09-09T05:06:19.536Z,98025.97
2022-09-09T05:08:50.279Z,98032.97
2022-09-09T05:11:31.230Z,98031.94
2022-09-09T05:14:02.419Z,98030.34
2022-09-09T05:16:31.713Z,98039.50
2022-09-09T05:18:58.601Z,98032.59
2022-09-09T05:21:27.564Z,98036.47
2022-09-09T05:23:54.123Z,98034.25
2022-09-09T05:26:23.021Z,98044.97
2022-09-09T05:28:52.199Z,98041.50
2022-09-09T05:31:20.484Z,98032.44
2022-09-09T05:33:53.051Z,98050.94
2022-09-09T05:36:22.715Z,98051.00
2022-09-09T05:38:54.773Z,98038.66
2022-09-09T05:41:23.613Z,98037.88
2022-09-09T05:43:51.514Z,98040.47
2022-09-09T05:46:20.902Z,98056.31
2022-09-09T05:48:52.959Z,98051.75
2022-09-09T05:51:27.486Z,98055.84
2022-09-09T05:53:59.546Z,98055.84
2022-09-09T05:56:30.289Z,98068.28
2022-09-09T05:59:01.063Z,98066.81
2022-09-09T06:01:29.726Z,98080.84
2022-09-09T06:03:57.927Z,98057.72
2022-09-09T06:06:31.811Z,98077.13
2022-09-09T06:09:00.435Z,98076.59
2022-09-09T06:11:32.454Z,98092.06
2022-09-09T06:14:00.954Z,98098.13
2022-09-09T06:16:30.838Z,98103.72
2022-09-09T06:18:58.784Z,98097.28
2022-09-09T06:21:28.727Z,98088.50
2022-09-09T06:23:59.085Z,98080.28
2022-09-09T06:26:36.386Z,98094.28
2022-09-09T06:29:05.102Z,98080.06
2022-09-09T06:31:35.360Z,98085.59
2022-09-09T06:34:09.369Z,98092.13
2022-09-09T06:36:39.959Z,98096.72
2022-09-09T06:39:14.245Z,98082.81
2022-09-09T06:41:43.361Z,98074.25
2022-09-09T06:44:23.721Z,98080.03
2022-09-09T06:46:50.999Z,98079.63
2022-09-09T06:49:17.672Z,98074.25
2022-09-09T06:51:44.730Z,98075.88
2022-09-09T06:54:13.319Z,98075.50
2022-09-09T06:56:44.616Z,98079.97
2022-09-09T06:59:21.571Z,98072.00
2022-09-09T07:01:51.345Z,98061.44
2022-09-09T07:04:22.318Z,98071.78
2022-09-09T07:06:49.127Z,98074.59
2022-09-09T07:09:22.578Z,98077.25
2022-09-09T07:11:54.999Z,98080.06
2022-09-09T07:14:23.624Z,98074.16
2022-09-09T07:16:59.345Z,98073.69
2022-09-09T07:19:27.672Z,98074.47
2022-09-09T07:21:55.728Z,98082.97
2022-09-09T07:24:24.631Z,98075.75
2022-09-09T07:26:53.081Z,98083.78
2022-09-09T07:29:21.146Z,98071.72
2022-09-09T07:31:49.497Z,98071.91
2022-09-09T07:34:21.187Z,98082.38
2022-09-09T07:36:48.107Z,98085.16
2022-09-09T07:39:15.478Z,98076.53
2022-09-09T07:41:49.155Z,98067.78
2022-09-09T07:44:25.694Z,98077.78
2022-09-09T07:46:59.609Z,98074.53
2022-09-09T07:49:33.388Z,98084.19
2022-09-09T07:52:01.914Z,98081.72
2022-09-09T07:54:29.141Z,98061.72
2022-09-09T07:56:55.834Z,98074.66
2022-09-09T07:59:25.940Z,98054.41
2022-09-09T08:01:55.599Z,98085.41
2022-09-09T08:04:27.055Z,98069.59
2022-09-09T08:06:56.851Z,98084.19
2022-09-09T08:09:28.026Z,98077.31
2022-09-09T08:11:57.511Z,98074.31
2022-09-09T08:14:25.180Z,98070.41
2022-09-09T08:16:55.061Z,98080.06
2022-09-09T08:19:24.446Z,98075.34
2022-09-09T08:21:52.250Z,98080.94
2022-09-09T08:24:20.582Z,98077.69
2022-09-09T08:26:50.466Z,98080.13
2022-09-09T08:29:21.348Z,98088.63
2022-09-09T08:31:55.275Z,98072.59
2022-09-09T08:34:22.629Z,98078.19
2022-09-09T08:36:51.783Z,98084.09
2022-09-09T08:39:23.885Z,98074.13
2022-09-09T08:42:01.577Z,98080.97
2022-09-09T08:44:51.652Z,98082.78
2022-09-09T08:47:34.056Z,98080.66
2022-09-09T08:50:34.859Z,98069.91
2022-09-09T08:53:09.282Z,98075.78
2022-09-09T08:55:45.849Z,98082.31
2022-09-09T08:58:22.702Z,98076.94
2022-09-09T09:01:09.446Z,98068.28
2022-09-09T09:03:40.339Z,98080.69
2022-09-09T09:06:23.809Z,98069.78
2022-09-09T09:09:07.583Z,98072.06
2022-09-09T09:11:48.031Z,98071.09
2022-09-09T09:14:25.507Z,98079.72
2022-09-09T09:17:06.416Z,98073.53
2022-09-09T09:19:36.836Z,98085.41
2022-09-09T09:22:45.438Z,98065.34
2022-09-09T09:25:23.880Z,98074.50
2022-09-09T09:28:07.741Z,98084.59
2022-09-09T09:30:53.463Z,98074.78
2022-09-09T09:33:34.156Z,98064.66
2022-09-09T09:36:01.209Z,98072.50
2022-09-09T09:41:19.384Z,98059.44
2022-09-09T09:43:54.809Z,98059.94
2022-09-09T09:46:26.859Z,98072.47
2022-09-09T09:49:03.787Z,98054.19
2022-09-09T09:51:33.628Z,98061.00
2022-09-09T09:54:23.945Z,98057.25
2022-09-09T09:56:54.773Z,98059.06
2022-09-09T09:59:29.681Z,98055.75
2022-09-09T10:02:26.784Z,98052.44
2022-09-09T10:05:04.864Z,98053.28
2022-09-09T10:07:34.294Z,98049.16
2022-09-09T10:10:01.616Z,98043.41
2022-09-09T10:12:45.164Z,98052.41
2022-09-09T10:15:25.405Z,98045.72
2022-09-09T10:18:20.026Z,98043.69
2022-09-09T10:21:18.080Z,98034.66
2022-09-09T10:24:10.238Z,98042.81
2022-09-09T10:26:54.340Z,98039.69
2022-09-09T10:29:42.576Z,98049.47
2022-09-09T10:32:18.705Z,98036.56
2022-09-09T10:34:56.766Z,98031.16
2022-09-09T10:37:46.007Z,98034.25
2022-09-09T10:40:34.171Z,98025.53
2022-09-09T10:43:23.831Z,98025.03
2022-09-09T10:46:12.617Z,98012.56
2022-09-09T10:48:46.789Z,98026.88
2022-09-09T10:51:31.941Z,98021.59
2022-09-09T10:54:17.275Z,98028.44
2022-09-09T10:56:49.237Z,98023.13
2022-09-09T10:59:23.542Z,98021.78
2022-09-09T11:01:53.150Z,98013.22
2022-09-09T11:04:52.448Z,98016.88
2022-09-09T11:07:40.619Z,98002.72
2022-09-09T11:10:25.241Z,98000.50
2022-09-09T11:12:59.260Z,98010.59
2022-09-09T11:15:37.336Z,98005.47
2022-09-09T11:18:07.541Z,97991.75
2022-09-09T11:20:35.881Z,97997.25
2022-09-09T11:23:14.562Z,97991.53
2022-09-09T11:25:48.168Z,97985.78
2022-09-09T11:28:37.550Z,97993.47
2022-09-09T11:31:35.179Z,97991.38
2022-09-09T11:34:13.034Z,97986.41
2022-09-09T11:37:07.814Z,97996.59
2022-09-09T11:40:02.006Z,97996.50
2022-09-09T11:42:28.708Z,97998.88
2022-09-09T11:44:55.998Z,97983.72
2022-09-09T11:47:30.173Z,97981.53
2022-09-09T11:50:09.970Z,97971.03
2022-09-09T11:52:39.212Z,97983.94
2022-09-09T11:55:37.865Z,97980.16
2022-09-09T11:58:19.319Z,97978.72
2022-09-09T12:00:48.465Z,97982.34
2022-09-09T12:03:33.856Z,97987.19
2022-09-09T12:06:10.502Z,97977.34
2022-09-09T12:08:38.241Z,97973.38
2022-09-09T12:11:05.536Z,97975.88
2022-09-09T12:13:32.716Z,97962.09
2022-09-09T12:16:03.194Z,97973.19
2022-09-09T12:18:35.990Z,97967.31
2022-09-09T12:21:29.621Z,97956.69
2022-09-09T12:23:59.090Z,97954.50
2022-09-09T12:26:45.897Z,97969.63
2022-09-09T12:29:43.103Z,97958.78
2022-09-09T12:32:19.598Z,97953.03
2022-09-09T12:34:56.142Z,97960.72
2022-09-09T12:37:34.029Z,97952.69
2022-09-09T12:40:03.898Z,97957.56
2022-09-09T12:42:31.075Z,97943.72
2022-09-09T12:44:59.530Z,97939.31
2022-09-09T12:48:02.005Z,97940.59
2022-09-09T12:50:34.872Z,97944.06
2022-09-09T12:53:35.818Z,97942.06
2022-09-09T12:56:09.003Z,97932.06
2022-09-09T12:58:39.100Z,97937.16
2022-09-09T13:01:07.102Z,97932.19
2022-09-09T13:03:35.070Z,97924.13
2022-09-09T13:06:35.116Z,97917.81
2022-09-09T13:09:03.436Z,97911.44
2022-09-09T13:11:37.704Z,97916.50
2022-09-09T13:14:04.467Z,97918.06
2022-09-09T13:16:36.722Z,97903.69
2022-09-09T13:19:15.862Z,97919.81
2022-09-09T13:21:43.590Z,97901.19
2022-09-09T13:24:30.446Z,97904.63
2022-09-09T13:26:59.057Z,97905.81
2022-09-09T13:29:25.727Z,97911.94
2022-09-09T13:31:54.074Z,97910.53
2022-09-09T13:34:33.361Z,97912.03
2022-09-09T13:37:09.455Z,97906.50
2022-09-09T13:39:38.458Z,97897.25
2022-09-09T13:42:05.783Z,97893.81
2022-09-09T13:44:38.569Z,97903.25
2022-09-09T13:47:10.192Z,97900.22
2022-09-09T13:49:37.614Z,97899.31
2022-09-09T13:52:12.894Z,97891.75
2022-09-09T13:54:40.175Z,97890.38
2022-09-09T13:57:14.829Z,97888.19
2022-09-09T14:00:03.741Z,97879.69
2022-09-09T14:02:32.141Z,97881.69
2022-09-09T14:04:58.990Z,97885.19
2022-09-09T14:07:26.265Z,97890.56
2022-09-09T14:09:53.591Z,97886.03
2022-09-09T14:12:21.113Z,97886.56
2022-09-09T14:14:47.760Z,97881.81
2022-09-09T14:17:15.395Z,97873.69
2022-09-09T14:19:41.928Z,97870.50
2022-09-09T14:22:08.458Z,97883.06
2022-09-09T14:24:35.141Z,97888.16
2022-09-09T14:27:01.706Z,97881.84
2022-09-09T14:29:28.251Z,97873.66
2022-09-09T14:31:54.865Z,97878.38
2022-09-09T14:34:21.561Z,97871.75
2022-09-09T14:36:48.384Z,97879.47
2022-09-09T14:39:15.155Z,97878.72
2022-09-09T14:41:41.849Z,97874.31
2022-09-09T14:44:09.497Z,97877.50
2022-09-09T14:46:36.041Z,97877.50
2022-09-09T14:49:02.717Z,97875.00
2022-09-09T14:51:29.329Z,97886.13
2022-09-09T14:53:59.687Z,97887.34
2022-09-09T14:56:30.502Z,97876.66
2022-09-09T14:58:59.520Z,97883.41
2022-09-09T15:01:30.308Z,97875.91
2022-09-09T15:04:00.144Z,97885.03
2022-09-09T15:06:30.963Z,97875.53
2022-09-09T15:09:01.309Z,97873.69
2022-09-09T15:11:31.704Z,97872.22
2022-09-09T15:13:59.232Z,97885.13
2022-09-09T15:16:29.350Z,97878.31
2022-09-09T15:18:59.099Z,97875.78
2022-09-09T15:21:31.853Z,97880.19
2022-09-09T15:23:59.891Z,97875.94
2022-09-09T15:26:28.079Z,97870.72
2022-09-09T15:28:55.743Z,97874.84
2022-09-09T15:31:24.879Z,97871.63
2022-09-09T15:33:52.600Z,97869.13
2022-09-09T15:36:27.185Z,97870.91
2022-09-09T15:38:53.970Z,97863.91
2022-09-09T15:41:22.534Z,97872.84
2022-09-09T15:43:51.662Z,97871.00
2022-09-09T15:46:18.207Z,97866.16
2022-09-09T15:48:47.282Z,97863.31
2022-09-09T15:51:37.989Z,97862.91
2022-09-09T15:54:02.543Z,97861.66
2022-09-09T15:56:31.498Z,97854.53
2022-09-09T15:58:59.868Z,97854.72
2022-09-09T16:01:27.980Z,97857.16
2022-09-09T16:03:54.848Z,97860.19
2022-09-09T16:06:24.486Z,97856.25
2022-09-09T16:08:53.633Z,97858.03
2022-09-09T16:11:26.350Z,97861.34
2022-09-09T16:13:54.959Z,97859.63
2022-09-09T16:16:25.313Z,97868.69
2022-09-09T16:18:57.079Z,97859.59
2022-09-09T16:21:25.209Z,97860.97
2022-09-09T16:23:54.349Z,97868.19
2022-09-09T16:26:21.684Z,97862.34
2022-09-09T16:28:48.454Z,97860.91
2022-09-09T16:31:19.243Z,97863.47
2022-09-09T16:33:47.348Z,97862.66
2022-09-09T16:36:17.083Z,97871.09
2022-09-09T16:38:44.160Z,97868.06
2022-09-09T16:41:12.467Z,97874.09
2022-09-09T16:43:39.544Z,97876.63
2022-09-09T16:46:20.975Z,97880.25
2022-09-09T16:48:48.928Z,97882.63
2022-09-09T16:51:19.344Z,97884.75
2022-09-09T16:53:47.098Z,97878.59
2022-09-09T16:56:17.222Z,97882.84
2022-09-09T16:58:46.178Z,97881.94
2022-09-09T17:01:15.026Z,97883.22
2022-09-09T17:03:42.040Z,97880.31
2022-09-09T17:06:16.117Z,97888.59
2022-09-09T17:08:43.077Z,97884.09
2022-09-09T17:11:15.249Z,97883.06
2022-09-09T17:13:43.460Z,97885.81
2022-09-09T17:16:11.411Z,97890.59
2022-09-09T17:18:38.991Z,97889.03
2022-09-09T17:21:14.962Z,97893.97
2022-09-09T17:23:42.632Z,97882.22
2022-09-09T17:26:12.397Z,97880.81
2022-09-09T17:28:40.253Z,97878.53
2022-09-09T17:31:08.337Z,97891.72
2022-09-09T17:33:36.704Z,97878.38
2022-09-09T17:36:09.328Z,97891.78
2022-09-09T17:38:35.960Z,97893.00
2022-09-09T17:41:05.103Z,97897.75
2022-09-09T17:43:31.779Z,97887.16
2022-09-09T17:46:07.057Z,97892.75
2022-09-09T17:48:34.207Z,97895.38
2022-09-09T17:51:01.017Z,97896.53
2022-09-09T17:53:28.531Z,97898.19
2022-09-09T17:55:56.163Z,97893.91
2022-09-09T17:58:22.710Z,97896.09
2022-09-09T18:00:50.730Z,97898.19
2022-09-09T18:03:17.590Z,97899.16
2022-09-09T18:05:44.260Z,97898.97
2022-09-09T18:08:10.819Z,97900.59
2022-09-09T18:10:37.370Z,97901.56
2022-09-09T18:13:03.925Z,97897.97
2022-09-09T18:15:48.704Z,97901.25
2022-09-09T18:18:17.128Z,97905.41
2022-09-09T18:20:44.676Z,97910.81
2022-09-09T18:23:11.305Z,97918.59
2022-09-09T18:25:40.129Z,97927.72
2022-09-09T18:28:07.893Z,97908.38
2022-09-09T18:30:39.103Z,97935.81
2022-09-09T18:33:05.837Z,97941.66
2022-09-09T18:35:32.455Z,97937.25
2022-09-09T18:37:59.065Z,97950.63
2022-09-09T18:40:25.614Z,97952.44
2022-09-09T18:42:52.359Z,97940.56
2022-09-09T18:45:19.268Z,97954.97
2022-09-09T18:47:48.923Z,97957.09
2022-09-09T18:50:15.897Z,97962.34
2022-09-09T18:52:42.451Z,97960.28
2022-09-09T18:55:09.522Z,97966.31
2022-09-09T18:57:36.653Z,97957.00
2022-09-09T19:00:04.691Z,97960.94
2022-09-09T19:02:31.343Z,97976.78
2022-09-09T19:04:57.827Z,97986.88
2022-09-09T19:07:24.415Z,97980.38
2022-09-09T19:09:50.939Z,97988.38
2022-09-09T19:12:17.494Z,97996.56
2022-09-09T19:14:44.450Z,97998.00
2022-09-09T19:17:11.131Z,97989.06
2022-09-09T19:19:37.605Z,97996.38
2022-09-09T19:22:06.738Z,98000.97
2022-09-09T19:24:34.018Z,98007.34
2022-09-09T19:27:02.746Z,98009.28
2022-09-09T19:29:32.361Z,98006.22
2022-09-09T19:34:47.052Z,98022.06
2022-09-09T19:37:18.164Z,98021.41
2022-09-09T19:39:46.019Z,98017.34
2022-09-09T19:42:12.657Z,98018.94
2022-09-09T19:44:39.766Z,98015.38
2022-09-09T19:47:07.175Z,98025.81
2022-09-09T19:49:34.305Z,98015.69
2022-09-09T19:52:01.112Z,98020.91
2022-09-09T19:54:27.890Z,98025.97
2022-09-09T19:56:54.392Z,98025.13
2022-09-09T19:59:21.054Z,98026.59
2022-09-09T20:01:47.615Z,98027.91
2022-09-09T20:04:15.400Z,98026.94
2022-09-09T20:06:46.604Z,98028.94
2022-09-09T20:09:15.972Z,98030.53
2022-09-09T20:11:44.776Z,98032.03
2022-09-09T20:14:12.565Z,98027.13
2022-09-09T20:16:39.773Z,98028.63
2022-09-09T20:19:10.200Z,98028.16
2022-09-09T20:21:41.058Z,98033.81
2022-09-09T20:24:13.096Z,98038.25
2022-09-09T20:26:40.872Z,98026.00
2022-09-09T20:29:15.750Z,98045.09
2022-09-09T20:31:43.771Z,98032.19
2022-09-09T20:34:12.910Z,98044.13
2022-09-09T20:36:41.222Z,98039.06
2022-09-09T20:39:11.940Z,98042.81
2022-09-09T20:41:40.325Z,98043.47
2022-09-09T20:44:12.338Z,98041.34
2022-09-09T20:46:42.599Z,98044.91
2022-09-09T20:49:10.799Z,98056.19
2022-09-09T20:51:37.910Z,98050.13
2022-09-09T20:54:13.845Z,98056.47
2022-09-09T20:56:42.908Z,98058.09
2022-09-09T20:59:13.559Z,98050.19
2022-09-09T21:01:41.059Z,98059.94
2022-09-09T21:04:08.272Z,98055.69
2022-09-09T21:06:35.138Z,98053.72
2022-09-09T21:09:02.082Z,98057.44
2022-09-09T21:11:28.778Z,98065.75
2022-09-09T21:13:56.383Z,98058.72
2022-09-09T21:16:22.945Z,98049.78
2022-09-09T21:18:50.176Z,98057.94
2022-09-09T21:21:21.412Z,98070.56
2022-09-09T21:23:49.343Z,98069.88
2022-09-09T21:26:17.842Z,98067.94
2022-09-09T21:28:44.462Z,98071.53
2022-09-09T21:31:16.143Z,98066.09
2022-09-09T21:33:43.030Z,98056.75
2022-09-09T21:36:11.116Z,98066.00
2022-09-09T21:38:40.324Z,98067.34
2022-09-09T21:41:13.529Z,98048.72
2022-09-09T21:43:44.596Z,98073.44
2022-09-09T21:46:13.577Z,98078.94
2022-09-09T21:48:40.234Z,98073.34
2022-09-09T21:51:12.536Z,98072.75
2022-09-09T21:53:39.688Z,98082.06
2022-09-09T21:56:10.423Z,98083.22
2022-09-09T21:58:37.473Z,98064.31
2022-09-09T22:01:18.859Z,98075.09
2022-09-09T22:03:46.242Z,98079.81
2022-09-09T22:06:15.998Z,98096.28
2022-09-09T22:08:43.177Z,98086.47
2022-09-09T22:11:15.047Z,98085.47
2022-09-09T22:13:42.674Z,98094.16
2022-09-09T22:16:12.321Z,98097.81
2022-09-09T22:18:40.001Z,98096.06
2022-09-09T22:21:15.799Z,98108.94
2022-09-09T22:23:42.782Z,98093.47
2022-09-09T22:26:10.597Z,98100.88
2022-09-09T22:28:38.641Z,98099.44
2022-09-09T22:31:06.264Z,98098.47
2022-09-09T22:33:33.236Z,98097.34
2022-09-09T22:35:59.871Z,98085.22
2022-09-09T22:38:27.002Z,98098.63
2022-09-09T22:40:54.623Z,98104.16
2022-09-09T22:43:22.565Z,98100.28
2022-09-09T22:45:51.017Z,98108.72
2022-09-09T22:48:17.796Z,98110.34
2022-09-09T22:50:44.984Z,98115.56
2022-09-09T22:53:16.233Z,98116.56
2022-09-09T22:55:43.646Z,98110.22
2022-09-09T22:58:10.342Z,98113.59
2022-09-09T23:00:40.108Z,98117.72
2022-09-09T23:03:07.826Z,98114.09
2022-09-09T23:05:36.706Z,98116.88
2022-09-09T23:08:03.351Z,98123.63
2022-09-09T23:10:32.084Z,98103.03
2022-09-09T23:12:58.772Z,98120.78
2022-09-09T23:15:25.339Z,98111.03
2022-09-09T23:17:52.196Z,98115.44
2022-09-09T23:20:22.178Z,98114.25
2022-09-09T23:22:48.766Z,98120.88
2022-09-09T23:25:15.407Z,98116.28
2022-09-09T23:27:41.982Z,98118.59
2022-09-09T23:30:09.939Z,98121.03
2022-09-09T23:32:37.354Z,98111.13
2022-09-09T23:35:05.056Z,98120.44
2022-09-09T23:37:31.876Z,98120.59
2022-09-09T23:39:58.461Z,98122.38
2022-09-09T23:42:25.825Z,98129.47
2022-09-09T23:44:52.526Z,98121.59
2022-09-09T23:47:19.135Z,98126.88
2022-09-09T23:49:48.750Z,98125.69
2022-09-09T23:52:15.425Z,98128.34
2022-09-09T23:54:41.978Z,98129.09
2022-09-09T23:57:08.697Z,98125.81
2022-09-09T23:59:35.685Z,98119.94
